Toronto/City Centre Seaplane Base

CPZ9 · Ontario, Canada

Storia di METAR CPZ9 · Toronto/City Centre Seaplane Base

Di seguito sono riportati i METAR degli ultimi giorni. Seleziona un anno per sfogliare i METAR più vecchi, dall'anno 2007 in poi.

19 luglio 2024

Tempo Codice Tempo meteorologico Temp. Vista Base nuvolosa Vento METAR/SPECI
09:00
V
18 °C 9 mi - 270° 270° 5 kt METAR CYTZ 191300Z AUTO 27005KT 220V300 9SM CLR 18/13 A3017 RMK SLP218 DENSITY ALT 500FT
08:00
V
17 °C 9 mi - 280° 280° 5 kt METAR CYTZ 191200Z AUTO 28005KT 9SM CLR 17/11 A3017 RMK SLP218
07:00
V
16 °C 9 mi - Var Var 2 kt METAR CYTZ 191100Z AUTO VRB02KT 9SM CLR 16/11 A3015 RMK SLP213
06:00
V
15 °C 9 mi - 280° 280° 5 kt METAR CYTZ 191000Z AUTO 28005KT 9SM CLR 15/12 A3014 RMK SLP208
05:00
V
16 °C 9 mi - 280° 280° 5 kt METAR CYTZ 190900Z AUTO 28005KT 9SM CLR 16/12 A3012 RMK SLP202
04:00
V
16 °C 9 mi - 330° 330° 8 - 16 kt METAR CYTZ 190800Z AUTO 33008G16KT 9SM CLR 16/12 A3012 RMK SLP201
03:00
V
17 °C 9 mi - 320° 320° 9 - 17 kt METAR CYTZ 190700Z AUTO 32009G17KT 9SM CLR 17/12 A3012 RMK SLP201
02:00
V
17 °C 9 mi - 320° 320° 8 - 15 kt METAR CYTZ 190600Z AUTO 32008G15KT 260V340 9SM CLR 17/12 A3012 RMK SLP202
01:00
V
18 °C 9 mi - 320° 320° 6 kt METAR CYTZ 190500Z AUTO 32006KT 270V340 9SM CLR 18/11 A3012 RMK SLP201 DENSITY ALT 500FT
00:00
V
19 °C 9 mi - 330° 330° 6 kt METAR CYTZ 190400Z AUTO 33006KT 270V350 9SM CLR 19/11 A3011 RMK SLP197 DENSITY ALT 600FT

18 luglio 2024

Tempo Codice Tempo meteorologico Temp. Vista Base nuvolosa Vento METAR/SPECI
23:00
V
20 °C 9 mi - 330° 330° 6 kt METAR CYTZ 190300Z AUTO 33006KT 9SM CLR 20/11 A3010 RMK SLP195 DENSITY ALT 700FT
22:00
V
20 °C 9 mi - 320° 320° 7 kt METAR CYTZ 190200Z AUTO 32007KT 300V010 9SM CLR 20/12 A3009 RMK SLP193 DENSITY ALT 700FT
21:00
V
21 °C 9 mi - 340° 340° 8 - 19 kt METAR CYTZ 190100Z AUTO 34008G19KT 9SM CLR 21/12 A3008 RMK SLP188 DENSITY ALT 800FT
20:00
V
22 °C 9 mi - 310° 310° 10 - 16 kt METAR CYTZ 190000Z AUTO 31010G16KT 290V350 9SM CLR 22/11 A3006 RMK SLP183 DENSITY ALT 1000FT
19:00
V
23 °C 9 mi - 300° 300° 11 kt METAR CYTZ 182300Z AUTO 30011KT 280V360 9SM CLR 23/11 A3005 RMK SLP179 DENSITY ALT 1100FT
18:19
V
22 °C 9 mi - 320° 320° 19 kt METAR CYTZ 182219Z AUTO 32019KT 9SM SCT055 22/11 A3005 RMK SLP176 DENSITY ALT 1100FT
18:00
V
22 °C 9 mi 5.500 ft 300° 300° 9 - 15 kt METAR CYTZ 182200Z AUTO 30009G15KT 270V010 9SM BKN055 22/12 A3005 RMK SLP178 DENSITY ALT 1100FT
17:00
V
23 °C 9 mi 6.000 ft 320° 320° 10 - 23 kt METAR CYTZ 182100Z AUTO 32010G23KT 9SM FEW049 BKN060 23/12 A3004 RMK SLP176 DENSITY ALT 1100FT
16:08
V
23 °C 9 mi 5.500 ft 310° 310° 20 kt METAR CYTZ 182008Z AUTO 31020KT 300V360 9SM OVC055 23/12 A3005 RMK SLP176 DENSITY ALT 1100FT
16:00
V
23 °C 9 mi 6.000 ft 320° 320° 9 - 22 kt METAR CYTZ 182000Z AUTO 32009G22KT 290V360 9SM FEW050 OVC060 23/12 A3005 RMK SLP177 DENSITY ALT 1100FT
15:00
V
22 °C 9 mi 5.500 ft 320° 320° 15 - 24 kt METAR CYTZ 181900Z AUTO 32015G24KT 270V360 9SM BKN055 22/12 A3004 RMK SLP176 DENSITY ALT 1000FT
14:00
V
22 °C 9 mi 5.000 ft 320° 320° 13 - 24 kt METAR CYTZ 181800Z AUTO 32013G24KT 280V340 9SM BKN050 22/12 A3004 RMK SLP175 DENSITY ALT 1000FT
13:00
V
21 °C 9 mi 5.500 ft 300° 300° 12 - 22 kt METAR CYTZ 181700Z AUTO 30012G22KT 280V340 9SM SCT046 BKN055 21/12 A3005 RMK SLP176 DENSITY ALT 900FT
12:00
V
21 °C 9 mi 5.500 ft 310° 310° 19 - 24 kt METAR CYTZ 181600Z AUTO 31019G24KT 9SM SCT037 SCT046 OVC055 21/13 A3004 RMK SLP173 DENSITY ALT 900FT
11:59
V
21 °C 9 mi 5.500 ft 320° 320° 19 - 24 kt METAR CYTZ 181559Z AUTO 32019G24KT 9SM SCT039 SCT048 OVC055 21/13 A3004 RMK SLP173 DENSITY ALT 900FT
11:00
V
21 °C 9 mi - 340° 340° 9 kt METAR CYTZ 181500Z AUTO 34009KT 9SM CLR 21/13 A3002 RMK SLP167 DENSITY ALT 900FT
10:00
V
20 °C 9 mi 3.400 ft 340° 340° 10 - 21 kt METAR CYTZ 181400Z AUTO 34010G21KT 280V010 9SM OVC034 20/13 A3001 RMK SLP163 DENSITY ALT 900FT
09:00
V
20 °C 9 mi - 320° 320° 11 - 24 kt METAR CYTZ 181300Z AUTO 32011G24KT 9SM CLR 20/13 A2999 RMK SLP158 DENSITY ALT 800FT
08:00
V
18 °C 9 mi - 320° 320° 11 - 19 kt METAR CYTZ 181200Z AUTO 32011G19KT 290V360 9SM CLR 18/14 A2999 RMK SLP156 DENSITY ALT 700FT
07:00
V
17 °C 9 mi - 310° 310° 14 - 22 kt METAR CYTZ 181100Z AUTO 31014G22KT 9SM CLR 17/14 A2997 RMK SLP149 DENSITY ALT 600FT
06:00
V
17 °C 9 mi - 330° 330° 7 - 18 kt METAR CYTZ 181000Z AUTO 33007G18KT 9SM CLR 17/14 A2995 RMK SLP144 DENSITY ALT 600FT
05:00
V
18 °C 9 mi - 320° 320° 11 - 18 kt METAR CYTZ 180900Z AUTO 32011G18KT 9SM CLR 18/14 A2993 RMK SLP136 DENSITY ALT 700FT
04:00
V
18 °C 9 mi - 320° 320° 15 - 22 kt METAR CYTZ 180800Z AUTO 32015G22KT 290V360 9SM CLR 18/13 A2992 RMK SLP132 DENSITY ALT 700FT
03:00
V
19 °C 9 mi - 320° 320° 7 - 17 kt METAR CYTZ 180700Z AUTO 32007G17KT 9SM CLR 19/13 A2991 RMK SLP131 DENSITY ALT 800FT
02:00
V
19 °C 9 mi - 320° 320° 15 - 23 kt METAR CYTZ 180600Z AUTO 32015G23KT 9SM CLR 19/13 A2990 RMK SLP128 DENSITY ALT 900FT
01:30
V
20 °C 9 mi - 320° 320° 19 - 24 kt METAR CYTZ 180530Z AUTO 32019G24KT 9SM CLR 20/12 A2991 RMK SLP129 DENSITY ALT 900FT
01:00
V
20 °C 9 mi - 320° 320° 8 - 20 kt METAR CYTZ 180500Z AUTO 32008G20KT 9SM CLR 20/12 A2990 RMK SLP128 DENSITY ALT 1000FT
00:00
V
21 °C 9 mi - 320° 320° 11 kt METAR CYTZ 180400Z AUTO 32011KT 9SM CLR 21/13 A2989 RMK SLP124 DENSITY ALT 1100FT

17 luglio 2024

Tempo Codice Tempo meteorologico Temp. Vista Base nuvolosa Vento METAR/SPECI
23:00
V
22 °C 9 mi - 320° 320° 7 kt METAR CYTZ 180300Z AUTO 32007KT 280V350 9SM CLR 22/14 A2988 RMK SLP121 DENSITY ALT 1200FT
22:00
V
24 °C 9 mi - 310° 310° 8 kt METAR CYTZ 180200Z AUTO 31008KT 9SM CLR 24/15 A2987 RMK SLP116 DENSITY ALT 1500FT
21:00
V
25 °C 9 mi - 310° 310° 8 kt METAR CYTZ 180100Z AUTO 31008KT 9SM CLR 25/15 A2985 RMK SLP108 DENSITY ALT 1600FT
20:00
V
26 °C 9 mi 17.000 ft 310° 310° 6 kt METAR CYTZ 180000Z AUTO 31006KT 270V340 9SM FEW055 SCT092 BKN170 26/15 A2984 RMK SLP105 DENSITY ALT 1700FT
19:00
V
26 °C 9 mi - 320° 320° 10 - 15 kt METAR CYTZ 172300Z AUTO 32010G15KT 280V350 9SM SCT081 26/15 A2983 RMK SLP102 DENSITY ALT 1800FT
18:00
V
25 °C 9 mi 8.900 ft Var Var 4 kt METAR CYTZ 172200Z AUTO VRB04KT 9SM SCT076 BKN089 25/19 A2981 RMK SLP096 DENSITY ALT 1600FT
17:00
V
24 °C 9 mi 6.600 ft 170° 170° 5 kt METAR CYTZ 172100Z AUTO 17005KT 9SM BKN066 BKN081 24/19 A2981 RMK SLP096 DENSITY ALT 1500FT
16:00
V
25 °C 9 mi - 180° 180° 8 kt METAR CYTZ 172000Z AUTO 18008KT 9SM SCT091 SCT110 25/17 A2981 RMK SLP095 DENSITY ALT 1600FT
15:00
V
24 °C 9 mi 8.600 ft 200° 200° 10 kt METAR CYTZ 171900Z AUTO 20010KT 9SM SCT071 BKN086 BKN160 24/19 A2982 RMK SLP098 DENSITY ALT 1500FT
14:00
V
23 °C 9 mi 12.000 ft 180° 180° 8 kt METAR CYTZ 171800Z AUTO 18008KT 9SM BKN120 BKN150 23/19 A2982 RMK SLP098 DENSITY ALT 1400FT
13:00
V
24 °C 9 mi - 200° 200° 10 - 15 kt METAR CYTZ 171700Z AUTO 20010G15KT 9SM CLR 24/17 A2981 RMK SLP097 DENSITY ALT 1500FT
12:00
V
23 °C 9 mi - 190° 190° 6 kt METAR CYTZ 171600Z AUTO 19006KT 9SM CLR 23/17 A2983 RMK SLP101 DENSITY ALT 1400FT
11:00
V
24 °C 9 mi - 290° 290° 7 kt METAR CYTZ 171500Z AUTO 29007KT 230V320 9SM FEW140 24/16 A2982 RMK SLP099 DENSITY ALT 1500FT
10:00
V
22 °C 9 mi - 240° 240° 6 kt METAR CYTZ 171400Z AUTO 24006KT 200V270 9SM SCT140 22/17 A2982 RMK SLP101 DENSITY ALT 1300FT
09:00
V
22 °C 6 mi - 270° 270° 7 kt METAR CYTZ 171300Z AUTO 27007KT 6SM HZ CLR 22/16 A2984 RMK SLP105 DENSITY ALT 1200FT
08:00
V
22 °C 9 mi - 320° 320° 6 kt METAR CYTZ 171200Z AUTO 32006KT 9SM FEW160 22/14 A2980 RMK SLP091 DENSITY ALT 1300FT
07:00
V
22 °C 9 mi 20.000 ft 290° 290° 6 kt METAR CYTZ 171100Z AUTO 29006KT 9SM SCT066 BKN200 22/15 A2979 RMK SLP088 DENSITY ALT 1300FT
06:00
V
22 °C 9 mi 8.100 ft 310° 310° 8 kt METAR CYTZ 171000Z AUTO 31008KT 9SM BKN081 BKN180 BKN220 OVC240 22/15 A2976 RMK SLP080 DENSITY ALT 1400FT
05:00
V
23 °C 9 mi 17.000 ft 310° 310° 8 kt METAR CYTZ 170900Z AUTO 31008KT 9SM SCT071 BKN170 OVC230 23/16 A2975 RMK SLP075 DENSITY ALT 1400FT
04:00
V
23 °C 9 mi - 310° 310° 7 kt METAR CYTZ 170800Z AUTO 31007KT 9SM CLR 23/19 A2974 RMK SLP072 DENSITY ALT 1500FT
03:00
V
23 °C 9 mi - 300° 300° 6 kt METAR CYTZ 170700Z AUTO 30006KT 9SM FEW026 23/21 A2975 RMK SLP074 DENSITY ALT 1500FT
02:00
V
22 °C 9 mi - 260° 260° 6 kt METAR CYTZ 170600Z AUTO 26006KT 230V300 9SM SCT130 SCT150 22/21 A2974 RMK SLP072 DENSITY ALT 1400FT
Segnala modifiche